Adco, Washington
Current Conditions -  °F | °C
As of 5:53 AM on Saturday 25 Oct 2014 (Local Time) from KEPH Reporting Station
Clear Clear  
Wind Chill: 44°   Ceiling: Unl
Heat Index: 49°   Visibility: 10mi
Dew Point: 43°   Wind: 13mph
Humidity: 80%   Direction: 340°NNW
Pressure: 29.72"   Gusts: NA
Location:  47.4314°N, 119.485°W
Report Text: KEPH 251253Z AUTO 34011KT 10SM CLR 09/06 A2972 RMK AO2 SLP067 T00940061
Loading
Personal Weather Stations






























Interactive Weather Map
Tropical Storm Tracking
New forecast layout! Learn more

10-Day Weather Forecast

Advertisements
Track Severe Weather on mobile